sensor_id;sensor_type;location;lat;lon;timestamp;temperature;humidity
28336;DHT22;15592;53.656;7.276;2023-07-22T00:00:44;14.40;99.90
28336;DHT22;15592;53.656;7.276;2023-07-22T00:03:11;14.40;99.90
28336;DHT22;15592;53.656;7.276;2023-07-22T00:05:36;14.40;99.90
28336;DHT22;15592;53.656;7.276;2023-07-22T00:08:02;14.40;99.90
28336;DHT22;15592;53.656;7.276;2023-07-22T00:10:28;14.40;99.90
28336;DHT22;15592;53.656;7.276;2023-07-22T00:12:53;14.40;99.90
28336;DHT22;15592;53.656;7.276;2023-07-22T00:15:19;14.40;99.90
28336;DHT22;15592;53.656;7.276;2023-07-22T00:17:46;14.40;99.90
28336;DHT22;15592;53.656;7.276;2023-07-22T00:20:12;14.40;99.90
28336;DHT22;15592;53.656;7.276;2023-07-22T00:22:40;14.40;99.90
28336;DHT22;15592;53.656;7.276;2023-07-22T00:25:10;14.40;99.90
28336;DHT22;15592;53.656;7.276;2023-07-22T00:27:41;14.50;99.90
28336;DHT22;15592;53.656;7.276;2023-07-22T00:30:07;14.50;99.90
28336;DHT22;15592;53.656;7.276;2023-07-22T00:32:33;14.50;99.90
28336;DHT22;15592;53.656;7.276;2023-07-22T00:34:59;14.50;99.90
28336;DHT22;15592;53.656;7.276;2023-07-22T00:37:25;14.50;99.90
28336;DHT22;15592;53.656;7.276;2023-07-22T00:39:51;14.50;99.90
28336;DHT22;15592;53.656;7.276;2023-07-22T00:42:16;14.50;99.90
28336;DHT22;15592;53.656;7.276;2023-07-22T00:44:42;14.50;99.90
28336;DHT22;15592;53.656;7.276;2023-07-22T00:47:08;14.50;99.90
28336;DHT22;15592;53.656;7.276;2023-07-22T00:49:35;14.50;99.90
28336;DHT22;15592;53.656;7.276;2023-07-22T00:52:02;14.40;99.90
28336;DHT22;15592;53.656;7.276;2023-07-22T00:54:29;14.40;99.90
28336;DHT22;15592;53.656;7.276;2023-07-22T00:56:56;14.30;99.90
28336;DHT22;15592;53.656;7.276;2023-07-22T00:59:22;14.30;99.90
28336;DHT22;15592;53.656;7.276;2023-07-22T01:01:48;14.20;99.90
28336;DHT22;15592;53.656;7.276;2023-07-22T01:04:15;14.20;99.90
28336;DHT22;15592;53.656;7.276;2023-07-22T01:06:43;14.20;99.90
28336;DHT22;15592;53.656;7.276;2023-07-22T01:09:09;14.20;99.90
28336;DHT22;15592;53.656;7.276;2023-07-22T01:11:35;14.10;99.90
28336;DHT22;15592;53.656;7.276;2023-07-22T01:14:01;14.10;99.90
28336;DHT22;15592;53.656;7.276;2023-07-22T01:16:27;14.10;99.90
28336;DHT22;15592;53.656;7.276;2023-07-22T01:18:54;14.10;99.90
28336;DHT22;15592;53.656;7.276;2023-07-22T01:21:22;14.10;99.90
28336;DHT22;15592;53.656;7.276;2023-07-22T01:23:48;14.00;99.90
28336;DHT22;15592;53.656;7.276;2023-07-22T01:26:14;14.00;99.90
28336;DHT22;15592;53.656;7.276;2023-07-22T01:28:40;14.00;99.90
28336;DHT22;15592;53.656;7.276;2023-07-22T01:31:05;14.10;99.90
28336;DHT22;15592;53.656;7.276;2023-07-22T01:33:31;14.10;99.90
28336;DHT22;15592;53.656;7.276;2023-07-22T01:35:58;14.00;99.90
28336;DHT22;15592;53.656;7.276;2023-07-22T01:38:23;14.00;99.90
28336;DHT22;15592;53.656;7.276;2023-07-22T01:40:49;14.00;99.90
28336;DHT22;15592;53.656;7.276;2023-07-22T01:43:14;14.10;99.90
28336;DHT22;15592;53.656;7.276;2023-07-22T01:45:40;14.10;99.90
28336;DHT22;15592;53.656;7.276;2023-07-22T01:48:07;14.10;99.90
28336;DHT22;15592;53.656;7.276;2023-07-22T01:50:32;14.10;99.90
28336;DHT22;15592;53.656;7.276;2023-07-22T01:52:58;14.10;99.90
28336;DHT22;15592;53.656;7.276;2023-07-22T01:55:23;14.10;99.90
28336;DHT22;15592;53.656;7.276;2023-07-22T01:57:49;14.10;99.90
28336;DHT22;15592;53.656;7.276;2023-07-22T02:00:15;14.10;99.90
28336;DHT22;15592;53.656;7.276;2023-07-22T02:02:43;14.10;99.90
28336;DHT22;15592;53.656;7.276;2023-07-22T02:05:09;14.10;99.90
28336;DHT22;15592;53.656;7.276;2023-07-22T02:07:36;14.10;99.90
28336;DHT22;15592;53.656;7.276;2023-07-22T02:10:01;14.10;99.90
28336;DHT22;15592;53.656;7.276;2023-07-22T02:12:27;14.20;99.90
28336;DHT22;15592;53.656;7.276;2023-07-22T02:14:53;14.20;99.90
28336;DHT22;15592;53.656;7.276;2023-07-22T02:17:18;14.20;99.90
28336;DHT22;15592;53.656;7.276;2023-07-22T02:19:45;14.20;99.90
28336;DHT22;15592;53.656;7.276;2023-07-22T02:22:11;14.20;99.90
28336;DHT22;15592;53.656;7.276;2023-07-22T02:24:37;14.20;99.90
28336;DHT22;15592;53.656;7.276;2023-07-22T02:27:04;14.20;99.90
28336;DHT22;15592;53.656;7.276;2023-07-22T02:29:29;14.20;99.90
28336;DHT22;15592;53.656;7.276;2023-07-22T02:31:56;14.20;99.90
28336;DHT22;15592;53.656;7.276;2023-07-22T02:34:23;14.10;99.90
28336;DHT22;15592;53.656;7.276;2023-07-22T02:36:48;14.10;99.90
28336;DHT22;15592;53.656;7.276;2023-07-22T02:39:14;14.10;99.90
28336;DHT22;15592;53.656;7.276;2023-07-22T02:41:40;14.00;99.90
28336;DHT22;15592;53.656;7.276;2023-07-22T02:44:05;14.00;99.90
28336;DHT22;15592;53.656;7.276;2023-07-22T02:46:31;14.00;99.90
28336;DHT22;15592;53.656;7.276;2023-07-22T02:49:00;13.90;99.90
28336;DHT22;15592;53.656;7.276;2023-07-22T02:51:26;13.90;99.90
28336;DHT22;15592;53.656;7.276;2023-07-22T02:53:51;13.80;99.90
28336;DHT22;15592;53.656;7.276;2023-07-22T02:56:17;13.80;99.90
28336;DHT22;15592;53.656;7.276;2023-07-22T02:58:43;13.80;99.90
28336;DHT22;15592;53.656;7.276;2023-07-22T03:01:09;13.70;99.90
28336;DHT22;15592;53.656;7.276;2023-07-22T03:03:36;13.70;99.90
28336;DHT22;15592;53.656;7.276;2023-07-22T03:06:02;13.70;99.90
28336;DHT22;15592;53.656;7.276;2023-07-22T03:08:29;13.60;99.90
28336;DHT22;15592;53.656;7.276;2023-07-22T03:10:55;13.60;99.90
28336;DHT22;15592;53.656;7.276;2023-07-22T03:13:20;13.60;99.90
28336;DHT22;15592;53.656;7.276;2023-07-22T03:15:46;13.60;99.90
28336;DHT22;15592;53.656;7.276;2023-07-22T03:18:12;13.60;99.90
28336;DHT22;15592;53.656;7.276;2023-07-22T03:20:38;13.60;99.90
28336;DHT22;15592;53.656;7.276;2023-07-22T03:23:07;13.50;99.90
28336;DHT22;15592;53.656;7.276;2023-07-22T03:25:34;13.50;99.90
28336;DHT22;15592;53.656;7.276;2023-07-22T03:28:03;13.50;99.90
28336;DHT22;15592;53.656;7.276;2023-07-22T03:30:29;13.40;99.90
28336;DHT22;15592;53.656;7.276;2023-07-22T03:32:55;13.40;99.90
28336;DHT22;15592;53.656;7.276;2023-07-22T03:35:21;13.40;99.90
28336;DHT22;15592;53.656;7.276;2023-07-22T03:37:46;13.40;99.90
28336;DHT22;15592;53.656;7.276;2023-07-22T03:40:12;13.40;99.90
28336;DHT22;15592;53.656;7.276;2023-07-22T03:42:54;13.40;99.90
28336;DHT22;15592;53.656;7.276;2023-07-22T03:45:21;13.40;99.90
28336;DHT22;15592;53.656;7.276;2023-07-22T03:47:51;13.40;99.90
28336;DHT22;15592;53.656;7.276;2023-07-22T03:50:18;13.40;99.90
28336;DHT22;15592;53.656;7.276;2023-07-22T03:52:43;13.40;99.90
28336;DHT22;15592;53.656;7.276;2023-07-22T03:55:09;13.40;99.90
28336;DHT22;15592;53.656;7.276;2023-07-22T03:57:35;13.40;99.90
28336;DHT22;15592;53.656;7.276;2023-07-22T04:00:00;13.40;99.90
28336;DHT22;15592;53.656;7.276;2023-07-22T04:02:26;13.50;99.90
28336;DHT22;15592;53.656;7.276;2023-07-22T04:04:54;13.50;99.90
28336;DHT22;15592;53.656;7.276;2023-07-22T04:07:20;13.50;99.90
28336;DHT22;15592;53.656;7.276;2023-07-22T04:09:47;13.40;99.90
28336;DHT22;15592;53.656;7.276;2023-07-22T04:12:12;13.50;99.90
28336;DHT22;15592;53.656;7.276;2023-07-22T04:14:38;13.50;99.90
28336;DHT22;15592;53.656;7.276;2023-07-22T04:17:04;13.50;99.90
28336;DHT22;15592;53.656;7.276;2023-07-22T04:19:30;13.50;99.90
28336;DHT22;15592;53.656;7.276;2023-07-22T04:21:56;13.40;99.90
28336;DHT22;15592;53.656;7.276;2023-07-22T04:24:22;13.40;99.90
28336;DHT22;15592;53.656;7.276;2023-07-22T04:26:48;13.30;99.90
28336;DHT22;15592;53.656;7.276;2023-07-22T04:29:14;13.40;99.90
28336;DHT22;15592;53.656;7.276;2023-07-22T04:31:40;13.40;99.90
28336;DHT22;15592;53.656;7.276;2023-07-22T04:34:05;13.40;99.90
28336;DHT22;15592;53.656;7.276;2023-07-22T04:36:32;13.40;99.90
28336;DHT22;15592;53.656;7.276;2023-07-22T04:38:57;13.40;99.90
28336;DHT22;15592;53.656;7.276;2023-07-22T04:41:23;13.50;99.90
28336;DHT22;15592;53.656;7.276;2023-07-22T04:43:50;13.50;99.90
28336;DHT22;15592;53.656;7.276;2023-07-22T04:46:16;13.60;99.90
28336;DHT22;15592;53.656;7.276;2023-07-22T04:48:41;13.60;99.90
28336;DHT22;15592;53.656;7.276;2023-07-22T04:51:07;13.70;99.90
28336;DHT22;15592;53.656;7.276;2023-07-22T04:53:33;13.80;99.90
28336;DHT22;15592;53.656;7.276;2023-07-22T04:55:58;13.80;99.90
28336;DHT22;15592;53.656;7.276;2023-07-22T04:58:24;13.90;99.90
28336;DHT22;15592;53.656;7.276;2023-07-22T05:00:50;14.00;99.90
28336;DHT22;15592;53.656;7.276;2023-07-22T05:03:16;14.00;99.90
28336;DHT22;15592;53.656;7.276;2023-07-22T05:05:43;14.10;99.90
28336;DHT22;15592;53.656;7.276;2023-07-22T05:08:09;14.20;99.90
28336;DHT22;15592;53.656;7.276;2023-07-22T05:10:34;14.20;99.90
28336;DHT22;15592;53.656;7.276;2023-07-22T05:13:00;14.30;99.90
28336;DHT22;15592;53.656;7.276;2023-07-22T05:15:25;14.30;99.90
28336;DHT22;15592;53.656;7.276;2023-07-22T05:17:51;14.30;99.90
28336;DHT22;15592;53.656;7.276;2023-07-22T05:20:17;14.20;99.90
28336;DHT22;15592;53.656;7.276;2023-07-22T05:22:43;14.10;99.90
28336;DHT22;15592;53.656;7.276;2023-07-22T05:25:08;14.10;99.90
28336;DHT22;15592;53.656;7.276;2023-07-22T05:27:35;14.00;99.90
28336;DHT22;15592;53.656;7.276;2023-07-22T05:30:01;14.00;99.90
28336;DHT22;15592;53.656;7.276;2023-07-22T05:32:30;14.00;99.90
28336;DHT22;15592;53.656;7.276;2023-07-22T05:34:56;14.00;99.90
28336;DHT22;15592;53.656;7.276;2023-07-22T05:37:25;14.00;99.90
28336;DHT22;15592;53.656;7.276;2023-07-22T05:39:51;14.00;99.90
28336;DHT22;15592;53.656;7.276;2023-07-22T05:42:17;14.00;99.90
28336;DHT22;15592;53.656;7.276;2023-07-22T05:44:43;14.10;99.90
28336;DHT22;15592;53.656;7.276;2023-07-22T05:47:09;14.10;99.90
28336;DHT22;15592;53.656;7.276;2023-07-22T05:49:35;14.20;99.90
28336;DHT22;15592;53.656;7.276;2023-07-22T05:52:00;14.20;99.90
28336;DHT22;15592;53.656;7.276;2023-07-22T05:54:26;14.30;99.90
28336;DHT22;15592;53.656;7.276;2023-07-22T05:56:51;14.30;99.90
28336;DHT22;15592;53.656;7.276;2023-07-22T05:59:17;14.40;99.90
28336;DHT22;15592;53.656;7.276;2023-07-22T06:01:43;14.40;99.90
28336;DHT22;15592;53.656;7.276;2023-07-22T06:04:08;14.40;99.90
28336;DHT22;15592;53.656;7.276;2023-07-22T06:06:35;14.40;99.90
28336;DHT22;15592;53.656;7.276;2023-07-22T06:09:01;14.40;99.90
28336;DHT22;15592;53.656;7.276;2023-07-22T06:11:27;14.40;99.90
28336;DHT22;15592;53.656;7.276;2023-07-22T06:13:53;14.50;99.90
28336;DHT22;15592;53.656;7.276;2023-07-22T06:16:19;14.50;99.90
28336;DHT22;15592;53.656;7.276;2023-07-22T06:18:45;14.50;99.90
28336;DHT22;15592;53.656;7.276;2023-07-22T06:21:10;14.50;99.90
28336;DHT22;15592;53.656;7.276;2023-07-22T06:23:36;14.60;99.90
28336;DHT22;15592;53.656;7.276;2023-07-22T06:26:02;14.60;99.90
28336;DHT22;15592;53.656;7.276;2023-07-22T06:28:28;14.70;99.90
28336;DHT22;15592;53.656;7.276;2023-07-22T06:30:53;14.70;99.90
28336;DHT22;15592;53.656;7.276;2023-07-22T06:33:19;14.80;99.90
28336;DHT22;15592;53.656;7.276;2023-07-22T06:35:45;14.80;99.90
28336;DHT22;15592;53.656;7.276;2023-07-22T06:38:11;14.90;99.90
28336;DHT22;15592;53.656;7.276;2023-07-22T06:40:36;14.90;99.90
28336;DHT22;15592;53.656;7.276;2023-07-22T06:43:02;15.00;99.90
28336;DHT22;15592;53.656;7.276;2023-07-22T06:45:28;15.00;99.90
28336;DHT22;15592;53.656;7.276;2023-07-22T06:47:53;15.10;99.90
28336;DHT22;15592;53.656;7.276;2023-07-22T06:50:19;15.20;99.90
28336;DHT22;15592;53.656;7.276;2023-07-22T06:52:44;15.30;99.90
28336;DHT22;15592;53.656;7.276;2023-07-22T06:55:10;15.30;99.90
28336;DHT22;15592;53.656;7.276;2023-07-22T06:57:36;15.40;99.90
28336;DHT22;15592;53.656;7.276;2023-07-22T07:00:04;15.50;99.90
28336;DHT22;15592;53.656;7.276;2023-07-22T07:02:30;15.50;99.90
28336;DHT22;15592;53.656;7.276;2023-07-22T07:04:56;15.50;99.90
28336;DHT22;15592;53.656;7.276;2023-07-22T07:07:21;15.50;99.90
28336;DHT22;15592;53.656;7.276;2023-07-22T07:09:47;15.60;99.90
28336;DHT22;15592;53.656;7.276;2023-07-22T07:12:13;15.60;99.90
28336;DHT22;15592;53.656;7.276;2023-07-22T07:14:38;15.60;99.90
28336;DHT22;15592;53.656;7.276;2023-07-22T07:17:04;15.70;99.90
28336;DHT22;15592;53.656;7.276;2023-07-22T07:19:30;15.70;99.90
28336;DHT22;15592;53.656;7.276;2023-07-22T07:21:55;15.80;99.90
28336;DHT22;15592;53.656;7.276;2023-07-22T07:24:21;15.80;99.90
28336;DHT22;15592;53.656;7.276;2023-07-22T07:26:47;15.90;99.90
28336;DHT22;15592;53.656;7.276;2023-07-22T07:29:12;15.90;99.90
28336;DHT22;15592;53.656;7.276;2023-07-22T07:31:38;16.00;99.90
28336;DHT22;15592;53.656;7.276;2023-07-22T07:34:04;16.00;99.90
28336;DHT22;15592;53.656;7.276;2023-07-22T07:36:34;16.00;99.90
28336;DHT22;15592;53.656;7.276;2023-07-22T07:39:00;16.00;99.90
28336;DHT22;15592;53.656;7.276;2023-07-22T07:41:25;16.00;99.90
28336;DHT22;15592;53.656;7.276;2023-07-22T07:43:51;16.00;99.90
28336;DHT22;15592;53.656;7.276;2023-07-22T07:46:29;16.00;99.90
28336;DHT22;15592;53.656;7.276;2023-07-22T07:48:56;16.00;99.90
28336;DHT22;15592;53.656;7.276;2023-07-22T07:51:23;16.10;99.90
28336;DHT22;15592;53.656;7.276;2023-07-22T07:53:50;16.10;99.90
28336;DHT22;15592;53.656;7.276;2023-07-22T07:56:17;16.20;99.90
28336;DHT22;15592;53.656;7.276;2023-07-22T07:58:44;16.20;99.90
28336;DHT22;15592;53.656;7.276;2023-07-22T08:01:10;16.20;99.90
28336;DHT22;15592;53.656;7.276;2023-07-22T08:03:38;16.30;99.90
28336;DHT22;15592;53.656;7.276;2023-07-22T08:06:04;16.30;99.90
28336;DHT22;15592;53.656;7.276;2023-07-22T08:08:30;16.30;99.90
28336;DHT22;15592;53.656;7.276;2023-07-22T08:13:24;16.30;99.90
28336;DHT22;15592;53.656;7.276;2023-07-22T08:15:50;16.30;99.90
28336;DHT22;15592;53.656;7.276;2023-07-22T08:18:15;16.30;99.90
28336;DHT22;15592;53.656;7.276;2023-07-22T08:20:41;16.40;99.90
28336;DHT22;15592;53.656;7.276;2023-07-22T08:23:07;16.40;99.90
28336;DHT22;15592;53.656;7.276;2023-07-22T08:25:32;16.40;99.90
28336;DHT22;15592;53.656;7.276;2023-07-22T08:27:58;16.50;99.90
28336;DHT22;15592;53.656;7.276;2023-07-22T08:30:23;16.50;99.90
28336;DHT22;15592;53.656;7.276;2023-07-22T08:32:49;16.50;99.90
28336;DHT22;15592;53.656;7.276;2023-07-22T08:35:15;16.50;99.90
28336;DHT22;15592;53.656;7.276;2023-07-22T08:37:43;16.60;99.90
28336;DHT22;15592;53.656;7.276;2023-07-22T08:40:09;16.70;99.90
28336;DHT22;15592;53.656;7.276;2023-07-22T08:42:36;16.80;99.90
28336;DHT22;15592;53.656;7.276;2023-07-22T08:45:04;17.00;99.90
28336;DHT22;15592;53.656;7.276;2023-07-22T08:47:31;17.00;99.90
28336;DHT22;15592;53.656;7.276;2023-07-22T08:50:01;17.00;99.90
28336;DHT22;15592;53.656;7.276;2023-07-22T08:52:27;17.00;99.90
28336;DHT22;15592;53.656;7.276;2023-07-22T08:54:53;17.00;99.90
28336;DHT22;15592;53.656;7.276;2023-07-22T08:57:19;16.90;99.90
28336;DHT22;15592;53.656;7.276;2023-07-22T08:59:46;16.80;99.90
28336;DHT22;15592;53.656;7.276;2023-07-22T09:02:12;16.90;99.90
28336;DHT22;15592;53.656;7.276;2023-07-22T09:04:39;16.90;99.90
28336;DHT22;15592;53.656;7.276;2023-07-22T09:07:08;17.00;99.90
28336;DHT22;15592;53.656;7.276;2023-07-22T09:09:34;17.10;99.90
28336;DHT22;15592;53.656;7.276;2023-07-22T09:12:01;17.20;99.90
28336;DHT22;15592;53.656;7.276;2023-07-22T09:14:28;17.30;99.90
28336;DHT22;15592;53.656;7.276;2023-07-22T09:16:57;17.30;99.90
28336;DHT22;15592;53.656;7.276;2023-07-22T09:19:23;17.20;99.90
28336;DHT22;15592;53.656;7.276;2023-07-22T09:21:49;17.20;99.90
28336;DHT22;15592;53.656;7.276;2023-07-22T09:24:23;17.10;99.90
28336;DHT22;15592;53.656;7.276;2023-07-22T09:26:50;17.10;99.90
28336;DHT22;15592;53.656;7.276;2023-07-22T09:29:16;17.10;99.90
28336;DHT22;15592;53.656;7.276;2023-07-22T09:31:52;17.10;99.90
28336;DHT22;15592;53.656;7.276;2023-07-22T09:34:18;17.20;99.90
28336;DHT22;15592;53.656;7.276;2023-07-22T09:36:54;17.20;99.90
28336;DHT22;15592;53.656;7.276;2023-07-22T09:39:20;17.20;99.90
28336;DHT22;15592;53.656;7.276;2023-07-22T09:41:47;17.30;99.90
28336;DHT22;15592;53.656;7.276;2023-07-22T09:44:12;17.30;99.90
28336;DHT22;15592;53.656;7.276;2023-07-22T09:46:38;17.40;99.90
28336;DHT22;15592;53.656;7.276;2023-07-22T09:49:06;17.40;99.90
28336;DHT22;15592;53.656;7.276;2023-07-22T09:51:35;17.40;99.90
28336;DHT22;15592;53.656;7.276;2023-07-22T09:54:03;17.30;99.90
28336;DHT22;15592;53.656;7.276;2023-07-22T09:56:30;17.20;99.90
28336;DHT22;15592;53.656;7.276;2023-07-22T09:59:02;17.10;99.90
28336;DHT22;15592;53.656;7.276;2023-07-22T10:01:29;17.10;99.90
28336;DHT22;15592;53.656;7.276;2023-07-22T10:03:56;17.10;99.90
28336;DHT22;15592;53.656;7.276;2023-07-22T10:06:27;17.10;99.90
28336;DHT22;15592;53.656;7.276;2023-07-22T10:08:55;17.00;99.90
28336;DHT22;15592;53.656;7.276;2023-07-22T10:11:22;17.10;99.90
28336;DHT22;15592;53.656;7.276;2023-07-22T10:13:50;17.00;99.90
28336;DHT22;15592;53.656;7.276;2023-07-22T10:16:16;17.00;99.90
28336;DHT22;15592;53.656;7.276;2023-07-22T10:18:42;16.90;99.90
28336;DHT22;15592;53.656;7.276;2023-07-22T10:21:10;16.80;99.90
28336;DHT22;15592;53.656;7.276;2023-07-22T10:23:37;16.80;99.90
28336;DHT22;15592;53.656;7.276;2023-07-22T10:26:05;16.80;99.90
28336;DHT22;15592;53.656;7.276;2023-07-22T10:28:31;16.80;99.90
28336;DHT22;15592;53.656;7.276;2023-07-22T10:30:58;16.80;99.90
28336;DHT22;15592;53.656;7.276;2023-07-22T10:33:24;16.80;99.90
28336;DHT22;15592;53.656;7.276;2023-07-22T10:38:30;16.80;99.90
28336;DHT22;15592;53.656;7.276;2023-07-22T10:40:56;16.80;99.90
28336;DHT22;15592;53.656;7.276;2023-07-22T10:43:27;16.90;99.90
28336;DHT22;15592;53.656;7.276;2023-07-22T10:45:56;16.80;99.90
28336;DHT22;15592;53.656;7.276;2023-07-22T10:48:26;16.80;99.90
28336;DHT22;15592;53.656;7.276;2023-07-22T10:50:57;16.80;99.90
28336;DHT22;15592;53.656;7.276;2023-07-22T11:01:36;16.60;99.90
28336;DHT22;15592;53.656;7.276;2023-07-22T11:04:21;16.60;99.90
28336;DHT22;15592;53.656;7.276;2023-07-22T11:15:27;16.40;99.90
28336;DHT22;15592;53.656;7.276;2023-07-22T11:17:43;16.40;99.90
28336;DHT22;15592;53.656;7.276;2023-07-22T11:20:09;16.40;99.90
28336;DHT22;15592;53.656;7.276;2023-07-22T11:22:35;16.30;99.90
28336;DHT22;15592;53.656;7.276;2023-07-22T11:25:00;16.30;99.90
28336;DHT22;15592;53.656;7.276;2023-07-22T11:27:26;16.20;99.90
28336;DHT22;15592;53.656;7.276;2023-07-22T11:29:52;16.10;99.90
28336;DHT22;15592;53.656;7.276;2023-07-22T11:32:18;16.00;99.90
28336;DHT22;15592;53.656;7.276;2023-07-22T11:34:46;16.00;99.90
28336;DHT22;15592;53.656;7.276;2023-07-22T11:37:12;16.10;99.90
28336;DHT22;15592;53.656;7.276;2023-07-22T11:39:39;16.10;99.90
28336;DHT22;15592;53.656;7.276;2023-07-22T11:42:07;16.20;99.90
28336;DHT22;15592;53.656;7.276;2023-07-22T11:44:33;16.20;99.90
28336;DHT22;15592;53.656;7.276;2023-07-22T11:47:06;16.20;99.90
28336;DHT22;15592;53.656;7.276;2023-07-22T11:49:40;16.30;99.90
28336;DHT22;15592;53.656;7.276;2023-07-22T11:52:07;16.50;99.90
28336;DHT22;15592;53.656;7.276;2023-07-22T11:54:40;16.60;99.90
28336;DHT22;15592;53.656;7.276;2023-07-22T11:57:24;16.60;99.90
28336;DHT22;15592;53.656;7.276;2023-07-22T11:59:51;16.60;99.90
28336;DHT22;15592;53.656;7.276;2023-07-22T12:02:22;16.60;99.90
28336;DHT22;15592;53.656;7.276;2023-07-22T12:05:02;16.70;99.90
28336;DHT22;15592;53.656;7.276;2023-07-22T12:07:32;16.70;99.90
28336;DHT22;15592;53.656;7.276;2023-07-22T12:10:01;16.70;99.90
28336;DHT22;15592;53.656;7.276;2023-07-22T12:12:34;16.80;99.90
28336;DHT22;15592;53.656;7.276;2023-07-22T12:17:55;16.80;99.90
28336;DHT22;15592;53.656;7.276;2023-07-22T12:20:28;16.90;99.90
28336;DHT22;15592;53.656;7.276;2023-07-22T12:22:55;16.80;99.90
28336;DHT22;15592;53.656;7.276;2023-07-22T12:25:21;16.70;99.90
28336;DHT22;15592;53.656;7.276;2023-07-22T12:27:47;16.70;99.90
28336;DHT22;15592;53.656;7.276;2023-07-22T12:30:13;16.70;99.90
28336;DHT22;15592;53.656;7.276;2023-07-22T12:32:39;16.70;99.90
28336;DHT22;15592;53.656;7.276;2023-07-22T12:35:05;16.70;99.90
28336;DHT22;15592;53.656;7.276;2023-07-22T12:37:31;16.70;99.90
28336;DHT22;15592;53.656;7.276;2023-07-22T12:39:57;16.70;99.90
28336;DHT22;15592;53.656;7.276;2023-07-22T12:42:22;16.70;99.90
28336;DHT22;15592;53.656;7.276;2023-07-22T12:44:48;16.70;99.90
28336;DHT22;15592;53.656;7.276;2023-07-22T12:47:14;16.70;99.90
28336;DHT22;15592;53.656;7.276;2023-07-22T12:49:40;16.60;99.90
28336;DHT22;15592;53.656;7.276;2023-07-22T12:52:06;16.70;99.90
28336;DHT22;15592;53.656;7.276;2023-07-22T12:54:35;16.60;99.90
28336;DHT22;15592;53.656;7.276;2023-07-22T12:57:01;16.70;99.90
28336;DHT22;15592;53.656;7.276;2023-07-22T12:59:27;16.70;99.90
28336;DHT22;15592;53.656;7.276;2023-07-22T13:01:53;16.70;99.90
28336;DHT22;15592;53.656;7.276;2023-07-22T13:04:19;16.70;99.90
28336;DHT22;15592;53.656;7.276;2023-07-22T13:06:45;16.60;99.90
28336;DHT22;15592;53.656;7.276;2023-07-22T13:09:10;16.70;99.90
28336;DHT22;15592;53.656;7.276;2023-07-22T13:11:36;16.70;99.90
28336;DHT22;15592;53.656;7.276;2023-07-22T13:14:02;16.70;99.90
28336;DHT22;15592;53.656;7.276;2023-07-22T13:16:28;16.60;99.90
28336;DHT22;15592;53.656;7.276;2023-07-22T13:18:54;16.60;99.90
28336;DHT22;15592;53.656;7.276;2023-07-22T13:21:19;16.60;99.90
28336;DHT22;15592;53.656;7.276;2023-07-22T13:23:45;16.50;99.90
28336;DHT22;15592;53.656;7.276;2023-07-22T13:26:11;16.50;99.90
28336;DHT22;15592;53.656;7.276;2023-07-22T13:28:36;16.50;99.90
28336;DHT22;15592;53.656;7.276;2023-07-22T13:31:02;16.50;99.90
28336;DHT22;15592;53.656;7.276;2023-07-22T13:33:27;16.50;99.90
28336;DHT22;15592;53.656;7.276;2023-07-22T13:35:53;16.40;99.90
28336;DHT22;15592;53.656;7.276;2023-07-22T13:38:19;16.40;99.90
28336;DHT22;15592;53.656;7.276;2023-07-22T13:40:44;16.40;99.90
28336;DHT22;15592;53.656;7.276;2023-07-22T13:43:10;16.40;99.90
28336;DHT22;15592;53.656;7.276;2023-07-22T13:45:36;16.40;99.90
28336;DHT22;15592;53.656;7.276;2023-07-22T13:48:01;16.40;99.90
28336;DHT22;15592;53.656;7.276;2023-07-22T13:50:27;16.40;99.90
28336;DHT22;15592;53.656;7.276;2023-07-22T13:52:52;16.40;99.90
28336;DHT22;15592;53.656;7.276;2023-07-22T13:55:18;16.40;99.90
28336;DHT22;15592;53.656;7.276;2023-07-22T13:57:44;16.40;99.90
28336;DHT22;15592;53.656;7.276;2023-07-22T14:00:10;16.40;99.90
28336;DHT22;15592;53.656;7.276;2023-07-22T14:02:37;16.50;99.90
28336;DHT22;15592;53.656;7.276;2023-07-22T14:05:03;16.50;99.90
28336;DHT22;15592;53.656;7.276;2023-07-22T14:07:28;16.60;99.90
28336;DHT22;15592;53.656;7.276;2023-07-22T14:09:54;16.70;99.90
28336;DHT22;15592;53.656;7.276;2023-07-22T14:12:20;16.80;99.90
28336;DHT22;15592;53.656;7.276;2023-07-22T14:14:46;16.90;99.90
28336;DHT22;15592;53.656;7.276;2023-07-22T14:17:11;17.00;99.90
28336;DHT22;15592;53.656;7.276;2023-07-22T14:19:37;17.00;99.90
28336;DHT22;15592;53.656;7.276;2023-07-22T14:22:03;17.00;99.90
28336;DHT22;15592;53.656;7.276;2023-07-22T14:24:29;17.00;99.90
28336;DHT22;15592;53.656;7.276;2023-07-22T14:26:55;17.00;99.90
28336;DHT22;15592;53.656;7.276;2023-07-22T14:29:21;16.90;99.90
28336;DHT22;15592;53.656;7.276;2023-07-22T14:31:47;16.90;99.90
28336;DHT22;15592;53.656;7.276;2023-07-22T14:34:12;16.90;99.90
28336;DHT22;15592;53.656;7.276;2023-07-22T14:36:38;16.80;99.90
28336;DHT22;15592;53.656;7.276;2023-07-22T14:39:04;16.70;99.90
28336;DHT22;15592;53.656;7.276;2023-07-22T14:41:30;16.70;99.90
28336;DHT22;15592;53.656;7.276;2023-07-22T14:43:56;16.60;99.90
28336;DHT22;15592;53.656;7.276;2023-07-22T14:46:22;16.60;99.90
28336;DHT22;15592;53.656;7.276;2023-07-22T14:48:48;16.50;99.90
28336;DHT22;15592;53.656;7.276;2023-07-22T14:51:14;16.50;99.90
28336;DHT22;15592;53.656;7.276;2023-07-22T14:53:39;16.50;99.90
28336;DHT22;15592;53.656;7.276;2023-07-22T14:56:05;16.50;99.90
28336;DHT22;15592;53.656;7.276;2023-07-22T14:58:34;16.50;99.90
28336;DHT22;15592;53.656;7.276;2023-07-22T15:01:00;16.50;99.90
28336;DHT22;15592;53.656;7.276;2023-07-22T15:03:26;16.50;99.90
28336;DHT22;15592;53.656;7.276;2023-07-22T15:05:52;16.40;99.90
28336;DHT22;15592;53.656;7.276;2023-07-22T15:08:18;16.30;99.90
28336;DHT22;15592;53.656;7.276;2023-07-22T15:10:43;16.30;99.90
28336;DHT22;15592;53.656;7.276;2023-07-22T15:13:09;16.20;99.90
28336;DHT22;15592;53.656;7.276;2023-07-22T15:15:34;16.10;99.90
28336;DHT22;15592;53.656;7.276;2023-07-22T15:18:00;16.00;99.90
28336;DHT22;15592;53.656;7.276;2023-07-22T15:20:26;15.90;99.90
28336;DHT22;15592;53.656;7.276;2023-07-22T15:22:52;15.90;99.90
28336;DHT22;15592;53.656;7.276;2023-07-22T15:25:17;15.80;99.90
28336;DHT22;15592;53.656;7.276;2023-07-22T15:27:43;15.80;99.90
28336;DHT22;15592;53.656;7.276;2023-07-22T15:30:09;15.90;99.90
28336;DHT22;15592;53.656;7.276;2023-07-22T15:32:36;15.80;99.90
28336;DHT22;15592;53.656;7.276;2023-07-22T15:35:01;15.90;99.90
28336;DHT22;15592;53.656;7.276;2023-07-22T15:37:27;15.90;99.90
28336;DHT22;15592;53.656;7.276;2023-07-22T15:39:53;15.90;99.90
28336;DHT22;15592;53.656;7.276;2023-07-22T15:42:18;15.80;99.90
28336;DHT22;15592;53.656;7.276;2023-07-22T15:44:44;15.80;99.90
28336;DHT22;15592;53.656;7.276;2023-07-22T15:47:10;15.80;99.90
28336;DHT22;15592;53.656;7.276;2023-07-22T15:49:35;15.90;99.90